sensor_id;sensor_type;location;lat;lon;timestamp;temperature;humidity
36322;DHT22;23564;48.290;11.460;2022-07-23T00:01:19;22.40;56.20
36322;DHT22;23564;48.290;11.460;2022-07-23T00:03:45;22.50;62.80
36322;DHT22;23564;48.290;11.460;2022-07-23T00:06:10;22.40;91.30
36322;DHT22;23564;48.290;11.460;2022-07-23T00:08:36;22.40;99.90
36322;DHT22;23564;48.290;11.460;2022-07-23T00:11:02;22.40;99.90
36322;DHT22;23564;48.290;11.460;2022-07-23T00:13:27;22.40;99.90
36322;DHT22;23564;48.290;11.460;2022-07-23T00:15:53;22.40;97.80
36322;DHT22;23564;48.290;11.460;2022-07-23T00:18:19;22.40;89.50
36322;DHT22;23564;48.290;11.460;2022-07-23T00:20:45;22.40;88.70
36322;DHT22;23564;48.290;11.460;2022-07-23T00:23:10;22.40;47.40
36322;DHT22;23564;48.290;11.460;2022-07-23T00:25:36;22.40;99.90
36322;DHT22;23564;48.290;11.460;2022-07-23T00:28:02;22.40;53.70
36322;DHT22;23564;48.290;11.460;2022-07-23T00:30:28;22.40;80.60
36322;DHT22;23564;48.290;11.460;2022-07-23T00:33:02;22.30;76.80
36322;DHT22;23564;48.290;11.460;2022-07-23T00:35:30;22.40;72.40
36322;DHT22;23564;48.290;11.460;2022-07-23T00:37:58;22.30;73.60
36322;DHT22;23564;48.290;11.460;2022-07-23T00:40:24;22.30;29.60
36322;DHT22;23564;48.290;11.460;2022-07-23T00:42:50;22.30;48.60
36322;DHT22;23564;48.290;11.460;2022-07-23T00:45:16;22.30;58.00
36322;DHT22;23564;48.290;11.460;2022-07-23T00:47:42;22.30;41.30
36322;DHT22;23564;48.290;11.460;2022-07-23T00:50:08;22.20;75.00
36322;DHT22;23564;48.290;11.460;2022-07-23T00:52:36;22.20;95.20
36322;DHT22;23564;48.290;11.460;2022-07-23T00:55:04;22.20;84.20
36322;DHT22;23564;48.290;11.460;2022-07-23T00:57:30;22.10;95.90
36322;DHT22;23564;48.290;11.460;2022-07-23T00:59:56;22.10;99.10
36322;DHT22;23564;48.290;11.460;2022-07-23T01:02:24;22.10;83.40
36322;DHT22;23564;48.290;11.460;2022-07-23T01:04:50;22.10;1.00
36322;DHT22;23564;48.290;11.460;2022-07-23T01:07:16;22.10;1.00
36322;DHT22;23564;48.290;11.460;2022-07-23T01:09:43;22.20;99.90
36322;DHT22;23564;48.290;11.460;2022-07-23T01:12:09;22.40;99.90
36322;DHT22;23564;48.290;11.460;2022-07-23T01:14:34;22.50;99.90
36322;DHT22;23564;48.290;11.460;2022-07-23T01:17:00;22.60;99.90
36322;DHT22;23564;48.290;11.460;2022-07-23T01:19:26;22.60;99.90
36322;DHT22;23564;48.290;11.460;2022-07-23T01:21:53;22.60;1.00
36322;DHT22;23564;48.290;11.460;2022-07-23T01:24:20;22.60;1.00
36322;DHT22;23564;48.290;11.460;2022-07-23T01:26:47;22.60;99.90
36322;DHT22;23564;48.290;11.460;2022-07-23T01:29:14;22.60;99.90
36322;DHT22;23564;48.290;11.460;2022-07-23T01:31:40;22.50;99.90
36322;DHT22;23564;48.290;11.460;2022-07-23T01:34:07;22.20;99.90
36322;DHT22;23564;48.290;11.460;2022-07-23T01:36:36;21.70;99.90
36322;DHT22;23564;48.290;11.460;2022-07-23T01:39:03;21.30;99.90
36322;DHT22;23564;48.290;11.460;2022-07-23T01:41:29;20.80;99.90
36322;DHT22;23564;48.290;11.460;2022-07-23T01:43:55;20.40;1.00
36322;DHT22;23564;48.290;11.460;2022-07-23T01:46:21;20.20;1.00
36322;DHT22;23564;48.290;11.460;2022-07-23T01:48:47;20.00;1.00
36322;DHT22;23564;48.290;11.460;2022-07-23T01:51:12;19.80;1.00
36322;DHT22;23564;48.290;11.460;2022-07-23T01:53:38;19.70;1.00
36322;DHT22;23564;48.290;11.460;2022-07-23T01:56:04;19.60;1.00
36322;DHT22;23564;48.290;11.460;2022-07-23T01:58:30;19.60;1.00
36322;DHT22;23564;48.290;11.460;2022-07-23T02:00:56;19.50;1.00
36322;DHT22;23564;48.290;11.460;2022-07-23T02:03:22;19.50;1.00
36322;DHT22;23564;48.290;11.460;2022-07-23T02:05:48;19.40;1.00
36322;DHT22;23564;48.290;11.460;2022-07-23T02:08:14;19.50;1.00
36322;DHT22;23564;48.290;11.460;2022-07-23T02:10:40;19.40;1.00
36322;DHT22;23564;48.290;11.460;2022-07-23T02:13:06;19.50;1.00
36322;DHT22;23564;48.290;11.460;2022-07-23T02:15:32;19.50;1.00
36322;DHT22;23564;48.290;11.460;2022-07-23T02:17:58;19.60;1.00
36322;DHT22;23564;48.290;11.460;2022-07-23T02:20:24;19.60;1.00
36322;DHT22;23564;48.290;11.460;2022-07-23T02:22:50;19.60;1.00
36322;DHT22;23564;48.290;11.460;2022-07-23T02:25:15;19.60;1.00
36322;DHT22;23564;48.290;11.460;2022-07-23T02:27:41;19.70;1.00
36322;DHT22;23564;48.290;11.460;2022-07-23T02:30:07;19.70;1.00
36322;DHT22;23564;48.290;11.460;2022-07-23T02:32:34;19.60;1.00
36322;DHT22;23564;48.290;11.460;2022-07-23T02:35:00;19.60;1.00
36322;DHT22;23564;48.290;11.460;2022-07-23T02:37:26;19.50;1.00
36322;DHT22;23564;48.290;11.460;2022-07-23T02:39:52;19.50;1.00
36322;DHT22;23564;48.290;11.460;2022-07-23T02:42:17;19.40;1.00
36322;DHT22;23564;48.290;11.460;2022-07-23T02:44:43;19.30;1.00
36322;DHT22;23564;48.290;11.460;2022-07-23T02:47:09;19.20;1.00
36322;DHT22;23564;48.290;11.460;2022-07-23T02:49:34;19.20;1.00
36322;DHT22;23564;48.290;11.460;2022-07-23T02:52:00;19.10;1.00
36322;DHT22;23564;48.290;11.460;2022-07-23T02:54:26;19.00;1.00
36322;DHT22;23564;48.290;11.460;2022-07-23T02:56:52;19.00;1.00
36322;DHT22;23564;48.290;11.460;2022-07-23T02:59:18;19.10;1.00
36322;DHT22;23564;48.290;11.460;2022-07-23T03:01:44;19.10;1.00
36322;DHT22;23564;48.290;11.460;2022-07-23T03:04:11;19.20;1.00
36322;DHT22;23564;48.290;11.460;2022-07-23T03:06:36;19.20;1.00
36322;DHT22;23564;48.290;11.460;2022-07-23T03:09:03;19.20;1.00
36322;DHT22;23564;48.290;11.460;2022-07-23T03:11:29;19.20;1.00
36322;DHT22;23564;48.290;11.460;2022-07-23T03:13:54;19.30;1.00
36322;DHT22;23564;48.290;11.460;2022-07-23T03:16:20;19.30;1.00
36322;DHT22;23564;48.290;11.460;2022-07-23T03:18:46;19.40;1.00
36322;DHT22;23564;48.290;11.460;2022-07-23T03:21:11;19.40;1.00
36322;DHT22;23564;48.290;11.460;2022-07-23T03:23:37;19.30;1.00
36322;DHT22;23564;48.290;11.460;2022-07-23T03:26:03;19.40;1.00
36322;DHT22;23564;48.290;11.460;2022-07-23T03:28:28;19.30;1.00
36322;DHT22;23564;48.290;11.460;2022-07-23T03:30:54;19.30;1.00
36322;DHT22;23564;48.290;11.460;2022-07-23T03:33:20;19.30;1.00
36322;DHT22;23564;48.290;11.460;2022-07-23T03:35:47;19.40;1.00
36322;DHT22;23564;48.290;11.460;2022-07-23T03:38:13;19.30;1.00
36322;DHT22;23564;48.290;11.460;2022-07-23T03:40:38;19.30;1.00
36322;DHT22;23564;48.290;11.460;2022-07-23T03:43:04;19.30;1.00
36322;DHT22;23564;48.290;11.460;2022-07-23T03:45:30;19.30;1.00
36322;DHT22;23564;48.290;11.460;2022-07-23T03:47:56;19.30;1.00
36322;DHT22;23564;48.290;11.460;2022-07-23T03:50:22;19.30;1.00
36322;DHT22;23564;48.290;11.460;2022-07-23T03:52:47;19.30;1.00
36322;DHT22;23564;48.290;11.460;2022-07-23T03:55:13;19.30;1.00
36322;DHT22;23564;48.290;11.460;2022-07-23T03:57:40;19.30;1.00
36322;DHT22;23564;48.290;11.460;2022-07-23T04:00:07;19.30;1.00
36322;DHT22;23564;48.290;11.460;2022-07-23T04:02:35;19.30;1.00
36322;DHT22;23564;48.290;11.460;2022-07-23T04:05:01;19.30;1.00
36322;DHT22;23564;48.290;11.460;2022-07-23T04:07:26;19.20;1.00
36322;DHT22;23564;48.290;11.460;2022-07-23T04:09:52;19.30;1.00
36322;DHT22;23564;48.290;11.460;2022-07-23T04:12:18;19.30;1.00
36322;DHT22;23564;48.290;11.460;2022-07-23T04:14:44;19.20;1.00
36322;DHT22;23564;48.290;11.460;2022-07-23T04:17:10;19.30;1.00
36322;DHT22;23564;48.290;11.460;2022-07-23T04:19:36;19.30;1.00
36322;DHT22;23564;48.290;11.460;2022-07-23T04:22:06;19.30;1.00
36322;DHT22;23564;48.290;11.460;2022-07-23T04:24:32;19.40;1.00
36322;DHT22;23564;48.290;11.460;2022-07-23T04:26:57;19.40;1.00
36322;DHT22;23564;48.290;11.460;2022-07-23T04:29:24;19.40;1.00
36322;DHT22;23564;48.290;11.460;2022-07-23T04:31:50;19.40;1.00
36322;DHT22;23564;48.290;11.460;2022-07-23T04:34:15;19.40;1.00
36322;DHT22;23564;48.290;11.460;2022-07-23T04:36:41;19.40;1.00
36322;DHT22;23564;48.290;11.460;2022-07-23T04:39:07;19.40;1.00
36322;DHT22;23564;48.290;11.460;2022-07-23T04:41:32;19.40;1.00
36322;DHT22;23564;48.290;11.460;2022-07-23T04:43:59;19.40;1.00
36322;DHT22;23564;48.290;11.460;2022-07-23T04:46:25;19.50;1.00
36322;DHT22;23564;48.290;11.460;2022-07-23T04:48:50;19.50;1.00
36322;DHT22;23564;48.290;11.460;2022-07-23T04:51:16;19.60;1.00
36322;DHT22;23564;48.290;11.460;2022-07-23T04:53:42;19.70;1.00
36322;DHT22;23564;48.290;11.460;2022-07-23T04:56:07;19.70;1.00
36322;DHT22;23564;48.290;11.460;2022-07-23T04:58:33;19.70;1.00
36322;DHT22;23564;48.290;11.460;2022-07-23T05:00:58;19.60;1.00
36322;DHT22;23564;48.290;11.460;2022-07-23T05:03:24;19.70;1.00
36322;DHT22;23564;48.290;11.460;2022-07-23T05:05:50;19.70;1.00
36322;DHT22;23564;48.290;11.460;2022-07-23T05:08:16;19.70;1.00
36322;DHT22;23564;48.290;11.460;2022-07-23T05:10:42;19.70;1.00
36322;DHT22;23564;48.290;11.460;2022-07-23T05:13:07;19.80;1.00
36322;DHT22;23564;48.290;11.460;2022-07-23T05:15:33;19.80;1.00
36322;DHT22;23564;48.290;11.460;2022-07-23T05:17:59;19.80;1.00
36322;DHT22;23564;48.290;11.460;2022-07-23T05:20:24;19.70;1.00
36322;DHT22;23564;48.290;11.460;2022-07-23T05:22:50;19.80;1.00
36322;DHT22;23564;48.290;11.460;2022-07-23T05:25:16;19.80;1.00
36322;DHT22;23564;48.290;11.460;2022-07-23T05:27:42;19.80;1.00
36322;DHT22;23564;48.290;11.460;2022-07-23T05:30:08;19.70;1.00
36322;DHT22;23564;48.290;11.460;2022-07-23T05:32:33;19.70;1.00
36322;DHT22;23564;48.290;11.460;2022-07-23T05:34:59;19.70;1.00
36322;DHT22;23564;48.290;11.460;2022-07-23T05:37:24;19.80;1.00
36322;DHT22;23564;48.290;11.460;2022-07-23T05:39:50;19.70;1.00
36322;DHT22;23564;48.290;11.460;2022-07-23T05:42:16;19.70;1.00
36322;DHT22;23564;48.290;11.460;2022-07-23T05:44:41;19.70;1.00
36322;DHT22;23564;48.290;11.460;2022-07-23T05:47:07;19.70;1.00
36322;DHT22;23564;48.290;11.460;2022-07-23T05:49:32;19.70;1.00
36322;DHT22;23564;48.290;11.460;2022-07-23T05:51:58;19.70;1.00
36322;DHT22;23564;48.290;11.460;2022-07-23T05:54:24;19.80;1.00
36322;DHT22;23564;48.290;11.460;2022-07-23T05:56:50;19.80;1.00
36322;DHT22;23564;48.290;11.460;2022-07-23T05:59:16;19.80;1.00
36322;DHT22;23564;48.290;11.460;2022-07-23T06:01:42;19.80;1.00
36322;DHT22;23564;48.290;11.460;2022-07-23T06:04:07;19.90;1.00
36322;DHT22;23564;48.290;11.460;2022-07-23T06:06:33;19.90;1.00
36322;DHT22;23564;48.290;11.460;2022-07-23T06:08:58;20.00;1.00
36322;DHT22;23564;48.290;11.460;2022-07-23T06:11:24;19.90;1.00
36322;DHT22;23564;48.290;11.460;2022-07-23T06:13:49;20.00;1.00
36322;DHT22;23564;48.290;11.460;2022-07-23T06:16:15;20.00;1.00
36322;DHT22;23564;48.290;11.460;2022-07-23T06:18:41;20.10;1.00
36322;DHT22;23564;48.290;11.460;2022-07-23T06:21:06;20.10;1.00
36322;DHT22;23564;48.290;11.460;2022-07-23T06:23:32;20.20;1.00
36322;DHT22;23564;48.290;11.460;2022-07-23T06:25:57;20.20;1.00
36322;DHT22;23564;48.290;11.460;2022-07-23T06:28:23;20.20;1.00
36322;DHT22;23564;48.290;11.460;2022-07-23T06:30:48;20.20;1.00
36322;DHT22;23564;48.290;11.460;2022-07-23T06:33:14;20.20;1.00
36322;DHT22;23564;48.290;11.460;2022-07-23T06:35:40;20.20;1.00
36322;DHT22;23564;48.290;11.460;2022-07-23T06:38:05;20.20;1.00
36322;DHT22;23564;48.290;11.460;2022-07-23T06:40:31;20.20;1.00
36322;DHT22;23564;48.290;11.460;2022-07-23T06:42:56;20.10;1.00
36322;DHT22;23564;48.290;11.460;2022-07-23T06:45:22;20.10;1.00
36322;DHT22;23564;48.290;11.460;2022-07-23T06:47:48;20.10;1.00
36322;DHT22;23564;48.290;11.460;2022-07-23T06:50:13;20.00;1.00
36322;DHT22;23564;48.290;11.460;2022-07-23T06:52:39;20.00;1.00
36322;DHT22;23564;48.290;11.460;2022-07-23T06:55:05;19.90;1.00
36322;DHT22;23564;48.290;11.460;2022-07-23T06:57:31;20.00;1.00
36322;DHT22;23564;48.290;11.460;2022-07-23T06:59:56;20.10;1.00
36322;DHT22;23564;48.290;11.460;2022-07-23T07:02:22;20.20;1.00
36322;DHT22;23564;48.290;11.460;2022-07-23T07:04:47;20.20;1.00
36322;DHT22;23564;48.290;11.460;2022-07-23T07:07:13;20.30;1.00
36322;DHT22;23564;48.290;11.460;2022-07-23T07:09:38;20.40;1.00
36322;DHT22;23564;48.290;11.460;2022-07-23T07:12:04;20.40;1.00
36322;DHT22;23564;48.290;11.460;2022-07-23T07:14:30;20.50;1.00
36322;DHT22;23564;48.290;11.460;2022-07-23T07:16:56;20.60;1.00
36322;DHT22;23564;48.290;11.460;2022-07-23T07:19:21;20.70;1.00
36322;DHT22;23564;48.290;11.460;2022-07-23T07:21:47;20.70;1.00
36322;DHT22;23564;48.290;11.460;2022-07-23T07:24:12;20.70;1.00
36322;DHT22;23564;48.290;11.460;2022-07-23T07:26:38;20.70;1.00
36322;DHT22;23564;48.290;11.460;2022-07-23T07:29:05;20.70;1.00
36322;DHT22;23564;48.290;11.460;2022-07-23T07:31:30;20.70;1.00
36322;DHT22;23564;48.290;11.460;2022-07-23T07:33:56;20.80;1.00
36322;DHT22;23564;48.290;11.460;2022-07-23T07:36:22;20.80;1.00
36322;DHT22;23564;48.290;11.460;2022-07-23T07:38:48;20.90;1.00
36322;DHT22;23564;48.290;11.460;2022-07-23T07:41:14;20.90;1.00
36322;DHT22;23564;48.290;11.460;2022-07-23T07:43:39;20.90;1.00
36322;DHT22;23564;48.290;11.460;2022-07-23T07:46:05;20.90;1.00
36322;DHT22;23564;48.290;11.460;2022-07-23T07:48:35;20.80;1.00
36322;DHT22;23564;48.290;11.460;2022-07-23T07:51:02;20.80;1.00
36322;DHT22;23564;48.290;11.460;2022-07-23T07:53:27;20.80;1.00
36322;DHT22;23564;48.290;11.460;2022-07-23T07:55:53;20.80;1.00
36322;DHT22;23564;48.290;11.460;2022-07-23T07:58:18;20.70;1.00
36322;DHT22;23564;48.290;11.460;2022-07-23T08:00:44;20.70;1.00
36322;DHT22;23564;48.290;11.460;2022-07-23T08:03:09;20.60;1.00
36322;DHT22;23564;48.290;11.460;2022-07-23T08:05:35;20.60;1.00
36322;DHT22;23564;48.290;11.460;2022-07-23T08:08:01;20.50;1.00
36322;DHT22;23564;48.290;11.460;2022-07-23T08:10:27;20.50;1.00
36322;DHT22;23564;48.290;11.460;2022-07-23T08:12:55;20.50;1.00
36322;DHT22;23564;48.290;11.460;2022-07-23T08:15:26;20.50;1.00
36322;DHT22;23564;48.290;11.460;2022-07-23T08:17:52;20.50;1.00
36322;DHT22;23564;48.290;11.460;2022-07-23T08:20:20;20.60;1.00
36322;DHT22;23564;48.290;11.460;2022-07-23T08:22:59;20.70;1.00
36322;DHT22;23564;48.290;11.460;2022-07-23T08:25:28;20.70;1.00
36322;DHT22;23564;48.290;11.460;2022-07-23T08:27:54;20.70;1.00
36322;DHT22;23564;48.290;11.460;2022-07-23T08:30:20;20.70;1.00
36322;DHT22;23564;48.290;11.460;2022-07-23T08:32:57;20.70;1.00
36322;DHT22;23564;48.290;11.460;2022-07-23T08:35:31;20.70;1.00
36322;DHT22;23564;48.290;11.460;2022-07-23T08:37:58;20.70;1.00
36322;DHT22;23564;48.290;11.460;2022-07-23T08:40:27;20.60;1.00
36322;DHT22;23564;48.290;11.460;2022-07-23T08:42:53;20.50;1.00
36322;DHT22;23564;48.290;11.460;2022-07-23T08:45:20;20.50;1.00
36322;DHT22;23564;48.290;11.460;2022-07-23T08:47:54;20.60;1.00
36322;DHT22;23564;48.290;11.460;2022-07-23T08:50:21;20.70;1.00
36322;DHT22;23564;48.290;11.460;2022-07-23T08:52:49;20.80;1.00
36322;DHT22;23564;48.290;11.460;2022-07-23T08:55:17;20.80;1.00
36322;DHT22;23564;48.290;11.460;2022-07-23T08:57:43;20.90;1.00
36322;DHT22;23564;48.290;11.460;2022-07-23T09:00:09;21.10;1.00
36322;DHT22;23564;48.290;11.460;2022-07-23T09:02:40;21.20;1.00
36322;DHT22;23564;48.290;11.460;2022-07-23T09:05:06;21.30;1.00
36322;DHT22;23564;48.290;11.460;2022-07-23T09:07:32;21.30;1.00
36322;DHT22;23564;48.290;11.460;2022-07-23T09:10:09;21.40;1.00
36322;DHT22;23564;48.290;11.460;2022-07-23T09:12:35;21.40;1.00
36322;DHT22;23564;48.290;11.460;2022-07-23T09:15:06;21.50;1.00
36322;DHT22;23564;48.290;11.460;2022-07-23T09:17:40;21.50;1.00
36322;DHT22;23564;48.290;11.460;2022-07-23T09:20:11;21.50;1.00
36322;DHT22;23564;48.290;11.460;2022-07-23T09:22:37;21.60;1.00
36322;DHT22;23564;48.290;11.460;2022-07-23T09:27:57;21.80;1.00
36322;DHT22;23564;48.290;11.460;2022-07-23T09:30:26;21.90;1.00
36322;DHT22;23564;48.290;11.460;2022-07-23T09:33:12;22.10;1.00
36322;DHT22;23564;48.290;11.460;2022-07-23T09:35:51;22.10;1.00
36322;DHT22;23564;48.290;11.460;2022-07-23T09:38:19;22.20;1.00
36322;DHT22;23564;48.290;11.460;2022-07-23T09:40:45;22.20;1.00
36322;DHT22;23564;48.290;11.460;2022-07-23T09:43:12;22.30;1.00
36322;DHT22;23564;48.290;11.460;2022-07-23T09:45:38;22.20;1.00
36322;DHT22;23564;48.290;11.460;2022-07-23T09:48:10;22.30;1.00
36322;DHT22;23564;48.290;11.460;2022-07-23T09:50:36;22.30;1.00
36322;DHT22;23564;48.290;11.460;2022-07-23T09:53:02;22.30;1.00
36322;DHT22;23564;48.290;11.460;2022-07-23T09:55:32;22.30;1.00
36322;DHT22;23564;48.290;11.460;2022-07-23T09:58:03;22.40;1.00
36322;DHT22;23564;48.290;11.460;2022-07-23T10:00:30;22.40;1.00
36322;DHT22;23564;48.290;11.460;2022-07-23T10:02:57;22.50;1.00
36322;DHT22;23564;48.290;11.460;2022-07-23T10:05:24;22.50;1.00
36322;DHT22;23564;48.290;11.460;2022-07-23T10:07:51;22.60;1.00
36322;DHT22;23564;48.290;11.460;2022-07-23T10:10:17;22.70;1.00
36322;DHT22;23564;48.290;11.460;2022-07-23T10:12:44;22.80;1.00
36322;DHT22;23564;48.290;11.460;2022-07-23T10:15:15;22.90;1.00
36322;DHT22;23564;48.290;11.460;2022-07-23T10:17:41;23.10;1.00
36322;DHT22;23564;48.290;11.460;2022-07-23T10:20:07;23.30;1.00
36322;DHT22;23564;48.290;11.460;2022-07-23T10:22:44;23.50;1.00
36322;DHT22;23564;48.290;11.460;2022-07-23T10:25:26;23.60;99.90
36322;DHT22;23564;48.290;11.460;2022-07-23T10:28:30;23.70;99.90
36322;DHT22;23564;48.290;11.460;2022-07-23T10:36:53;23.80;99.90
36322;DHT22;23564;48.290;11.460;2022-07-23T10:39:28;23.90;99.90
36322;DHT22;23564;48.290;11.460;2022-07-23T10:42:13;24.00;99.90
36322;DHT22;23564;48.290;11.460;2022-07-23T10:44:47;24.20;99.90
36322;DHT22;23564;48.290;11.460;2022-07-23T10:47:21;24.30;99.90
36322;DHT22;23564;48.290;11.460;2022-07-23T10:50:29;24.40;99.90
36322;DHT22;23564;48.290;11.460;2022-07-23T10:57:58;25.10;66.00
36322;DHT22;23564;48.290;11.460;2022-07-23T11:00:30;25.20;1.00
36322;DHT22;23564;48.290;11.460;2022-07-23T11:02:58;25.30;1.00
36322;DHT22;23564;48.290;11.460;2022-07-23T11:05:26;25.40;1.00
36322;DHT22;23564;48.290;11.460;2022-07-23T11:10:44;25.40;99.90
36322;DHT22;23564;48.290;11.460;2022-07-23T11:26:44;25.20;99.90
36322;DHT22;23564;48.290;11.460;2022-07-23T11:29:39;25.20;99.90
36322;DHT22;23564;48.290;11.460;2022-07-23T11:32:22;25.20;99.90
36322;DHT22;23564;48.290;11.460;2022-07-23T11:34:50;25.30;99.90
36322;DHT22;23564;48.290;11.460;2022-07-23T11:37:37;25.30;99.90
36322;DHT22;23564;48.290;11.460;2022-07-23T11:40:09;25.30;99.90
36322;DHT22;23564;48.290;11.460;2022-07-23T11:45:15;25.20;99.90
36322;DHT22;23564;48.290;11.460;2022-07-23T11:47:40;25.20;99.90
36322;DHT22;23564;48.290;11.460;2022-07-23T11:50:06;25.20;99.90
36322;DHT22;23564;48.290;11.460;2022-07-23T11:52:33;25.20;99.90
36322;DHT22;23564;48.290;11.460;2022-07-23T11:55:01;25.10;99.90
36322;DHT22;23564;48.290;11.460;2022-07-23T11:57:33;25.00;99.90
36322;DHT22;23564;48.290;11.460;2022-07-23T12:00:15;24.90;88.50
36322;DHT22;23564;48.290;11.460;2022-07-23T12:02:43;24.80;99.90
36322;DHT22;23564;48.290;11.460;2022-07-23T12:05:14;24.70;99.90
36322;DHT22;23564;48.290;11.460;2022-07-23T12:07:42;24.70;99.90
36322;DHT22;23564;48.290;11.460;2022-07-23T12:10:20;24.70;99.90
36322;DHT22;23564;48.290;11.460;2022-07-23T12:12:51;24.70;99.90
36322;DHT22;23564;48.290;11.460;2022-07-23T12:15:23;24.80;99.90
36322;DHT22;23564;48.290;11.460;2022-07-23T12:17:50;24.90;99.90
36322;DHT22;23564;48.290;11.460;2022-07-23T12:20:22;24.90;99.90
36322;DHT22;23564;48.290;11.460;2022-07-23T12:22:49;24.80;99.90
36322;DHT22;23564;48.290;11.460;2022-07-23T12:25:20;24.80;99.90
36322;DHT22;23564;48.290;11.460;2022-07-23T12:27:57;24.80;99.90
36322;DHT22;23564;48.290;11.460;2022-07-23T12:30:27;24.80;99.90
36322;DHT22;23564;48.290;11.460;2022-07-23T12:32:56;24.80;99.90
36322;DHT22;23564;48.290;11.460;2022-07-23T12:35:29;24.80;99.90
36322;DHT22;23564;48.290;11.460;2022-07-23T12:38:06;24.80;99.90
36322;DHT22;23564;48.290;11.460;2022-07-23T12:40:41;24.90;99.90
36322;DHT22;23564;48.290;11.460;2022-07-23T12:43:10;24.90;99.90
36322;DHT22;23564;48.290;11.460;2022-07-23T12:45:48;25.00;99.90
36322;DHT22;23564;48.290;11.460;2022-07-23T12:48:31;25.10;99.90
36322;DHT22;23564;48.290;11.460;2022-07-23T12:51:08;25.30;99.90
36322;DHT22;23564;48.290;11.460;2022-07-23T12:53:41;25.40;99.90
36322;DHT22;23564;48.290;11.460;2022-07-23T12:56:13;25.70;99.90
36322;DHT22;23564;48.290;11.460;2022-07-23T13:04:03;26.10;99.90
36322;DHT22;23564;48.290;11.460;2022-07-23T13:06:35;26.00;99.90
36322;DHT22;23564;48.290;11.460;2022-07-23T13:09:03;25.90;99.90
36322;DHT22;23564;48.290;11.460;2022-07-23T13:11:29;25.90;99.90
36322;DHT22;23564;48.290;11.460;2022-07-23T13:13:55;25.90;99.90
36322;DHT22;23564;48.290;11.460;2022-07-23T13:16:20;25.80;99.90
36322;DHT22;23564;48.290;11.460;2022-07-23T13:18:46;25.80;99.90
36322;DHT22;23564;48.290;11.460;2022-07-23T13:21:12;25.90;99.90
36322;DHT22;23564;48.290;11.460;2022-07-23T13:23:37;25.90;99.90
36322;DHT22;23564;48.290;11.460;2022-07-23T13:26:03;25.90;99.90
36322;DHT22;23564;48.290;11.460;2022-07-23T13:28:29;25.90;99.90
36322;DHT22;23564;48.290;11.460;2022-07-23T13:30:55;26.00;99.90
36322;DHT22;23564;48.290;11.460;2022-07-23T13:33:23;26.20;99.90
36322;DHT22;23564;48.290;11.460;2022-07-23T13:35:50;26.30;99.90
36322;DHT22;23564;48.290;11.460;2022-07-23T13:38:16;26.30;99.90
36322;DHT22;23564;48.290;11.460;2022-07-23T13:40:44;26.30;99.90
36322;DHT22;23564;48.290;11.460;2022-07-23T13:43:12;26.40;99.90
36322;DHT22;23564;48.290;11.460;2022-07-23T13:45:38;26.70;99.90
36322;DHT22;23564;48.290;11.460;2022-07-23T13:48:05;26.80;99.90
36322;DHT22;23564;48.290;11.460;2022-07-23T13:50:31;26.90;89.10
36322;DHT22;23564;48.290;11.460;2022-07-23T13:52:57;26.80;40.90
36322;DHT22;23564;48.290;11.460;2022-07-23T13:55:22;26.70;53.60
36322;DHT22;23564;48.290;11.460;2022-07-23T13:57:48;26.60;87.90
36322;DHT22;23564;48.290;11.460;2022-07-23T14:00:14;26.60;49.70
36322;DHT22;23564;48.290;11.460;2022-07-23T14:02:40;26.60;63.80
36322;DHT22;23564;48.290;11.460;2022-07-23T14:05:08;26.60;26.30
36322;DHT22;23564;48.290;11.460;2022-07-23T14:07:34;26.50;75.40
36322;DHT22;23564;48.290;11.460;2022-07-23T14:10:01;26.60;96.90
36322;DHT22;23564;48.290;11.460;2022-07-23T14:12:26;26.50;87.00
36322;DHT22;23564;48.290;11.460;2022-07-23T14:14:52;26.40;57.20
36322;DHT22;23564;48.290;11.460;2022-07-23T14:17:18;26.30;99.90
36322;DHT22;23564;48.290;11.460;2022-07-23T14:19:44;26.20;98.20
36322;DHT22;23564;48.290;11.460;2022-07-23T14:22:10;26.10;99.90
36322;DHT22;23564;48.290;11.460;2022-07-23T14:24:35;26.10;99.90
36322;DHT22;23564;48.290;11.460;2022-07-23T14:27:02;26.10;99.90
36322;DHT22;23564;48.290;11.460;2022-07-23T14:29:28;26.00;99.90
36322;DHT22;23564;48.290;11.460;2022-07-23T14:31:54;26.00;99.90
36322;DHT22;23564;48.290;11.460;2022-07-23T14:34:20;26.00;99.90
36322;DHT22;23564;48.290;11.460;2022-07-23T14:36:45;26.10;99.90
36322;DHT22;23564;48.290;11.460;2022-07-23T14:39:11;26.30;99.90
36322;DHT22;23564;48.290;11.460;2022-07-23T14:41:38;26.60;99.90
36322;DHT22;23564;48.290;11.460;2022-07-23T14:44:04;26.80;98.70
36322;DHT22;23564;48.290;11.460;2022-07-23T14:46:30;27.00;66.90
36322;DHT22;23564;48.290;11.460;2022-07-23T14:48:55;27.10;64.10
36322;DHT22;23564;48.290;11.460;2022-07-23T14:51:21;27.20;61.30
36322;DHT22;23564;48.290;11.460;2022-07-23T14:53:47;27.30;1.00
36322;DHT22;23564;48.290;11.460;2022-07-23T14:56:13;27.30;1.00
36322;DHT22;23564;48.290;11.460;2022-07-23T14:58:40;27.30;1.00
36322;DHT22;23564;48.290;11.460;2022-07-23T15:01:06;27.20;1.00
36322;DHT22;23564;48.290;11.460;2022-07-23T15:03:32;27.00;1.00
36322;DHT22;23564;48.290;11.460;2022-07-23T15:05:58;26.90;1.00
36322;DHT22;23564;48.290;11.460;2022-07-23T15:08:24;26.80;1.00
36322;DHT22;23564;48.290;11.460;2022-07-23T15:10:49;26.80;1.00
36322;DHT22;23564;48.290;11.460;2022-07-23T15:13:15;26.80;1.00
36322;DHT22;23564;48.290;11.460;2022-07-23T15:15:40;26.80;1.00
36322;DHT22;23564;48.290;11.460;2022-07-23T15:18:06;26.80;1.00
36322;DHT22;23564;48.290;11.460;2022-07-23T15:20:32;27.00;1.00
36322;DHT22;23564;48.290;11.460;2022-07-23T15:22:57;27.10;26.90
36322;DHT22;23564;48.290;11.460;2022-07-23T15:25:23;27.40;1.00
36322;DHT22;23564;48.290;11.460;2022-07-23T15:27:48;27.60;1.00
36322;DHT22;23564;48.290;11.460;2022-07-23T15:30:14;27.80;1.00
36322;DHT22;23564;48.290;11.460;2022-07-23T15:32:40;28.00;1.00
36322;DHT22;23564;48.290;11.460;2022-07-23T15:35:06;28.10;1.00
36322;DHT22;23564;48.290;11.460;2022-07-23T15:37:33;28.20;1.00
36322;DHT22;23564;48.290;11.460;2022-07-23T15:39:59;28.30;1.00
36322;DHT22;23564;48.290;11.460;2022-07-23T15:42:25;28.20;99.90
36322;DHT22;23564;48.290;11.460;2022-07-23T15:44:50;28.00;99.90
36322;DHT22;23564;48.290;11.460;2022-07-23T15:47:17;27.80;99.90
36322;DHT22;23564;48.290;11.460;2022-07-23T15:49:44;27.60;99.90
36322;DHT22;23564;48.290;11.460;2022-07-23T15:52:10;27.30;99.90
36322;DHT22;23564;48.290;11.460;2022-07-23T15:54:37;26.80;99.90
36322;DHT22;23564;48.290;11.460;2022-07-23T15:57:03;26.50;99.90
36322;DHT22;23564;48.290;11.460;2022-07-23T15:59:30;26.10;1.00
36322;DHT22;23564;48.290;11.460;2022-07-23T16:01:56;25.80;1.00
36322;DHT22;23564;48.290;11.460;2022-07-23T16:04:22;25.60;1.00